Time;durP1;ratioP1;P1;durP2;ratioP2;P2;SDS_P1;SDS_P2;PMS_P1;PMS_P2;Temp;Humidity;BMP_temperature;BMP_pressure;BME280_temperature;BME280_humidity;BME280_pressure;Samples;Min_cycle;Max_cycle;Signal;HPM_P1;HPM_P2
2023/05/09 00:01:52;;;;;;;7.72;4.78;;;11.10;72.40;;;;;;5052258;28;20108;-64
2023/05/09 00:04:18;;;;;;;8.07;4.88;;;11.10;72.90;;;;;;5051693;28;20147;-64
2023/05/09 00:06:44;;;;;;;7.45;4.70;;;11.10;72.80;;;;;;5052117;28;20068;-64
2023/05/09 00:09:11;;;;;;;8.55;4.60;;;11.10;72.70;;;;;;5051516;28;20037;-64
2023/05/09 00:11:37;;;;;;;7.50;4.75;;;11.10;72.90;;;;;;5052065;28;20021;-64
2023/05/09 00:14:03;;;;;;;8.93;5.35;;;11.00;72.80;;;;;;5052019;28;20024;-64
2023/05/09 00:16:31;;;;;;;6.07;4.85;;;11.00;73.80;;;;;;5051626;28;20025;-63
2023/05/09 00:18:57;;;;;;;6.40;4.55;;;11.00;73.90;;;;;;5051958;28;20037;-65
2023/05/09 00:21:23;;;;;;;9.00;5.18;;;11.00;74.10;;;;;;5051375;28;20108;-63
2023/05/09 00:23:49;;;;;;;12.85;4.97;;;10.90;73.60;;;;;;5054823;28;20104;-64
2023/05/09 00:26:15;;;;;;;9.43;5.30;;;10.90;73.90;;;;;;5055220;28;20040;-65
2023/05/09 00:28:40;;;;;;;12.30;4.85;;;10.90;74.30;;;;;;5055186;28;20032;-63
2023/05/09 00:31:06;;;;;;;5.63;4.50;;;10.90;75.00;;;;;;5055294;28;20433;-64
2023/05/09 00:33:31;;;;;;;6.32;4.60;;;10.80;74.90;;;;;;5054754;28;20104;-64
2023/05/09 00:35:57;;;;;;;5.75;4.50;;;10.80;74.90;;;;;;5055433;28;20068;-64
2023/05/09 00:38:23;;;;;;;8.88;4.90;;;10.80;74.90;;;;;;5055000;28;20469;-64
2023/05/09 00:40:49;;;;;;;7.45;4.50;;;10.70;74.80;;;;;;5055507;28;20465;-64
2023/05/09 00:43:15;;;;;;;8.18;4.97;;;10.80;75.00;;;;;;5054571;28;20462;-65
2023/05/09 00:45:42;;;;;;;5.97;4.97;;;10.80;75.50;;;;;;5055046;28;20481;-65
2023/05/09 00:48:07;;;;;;;6.00;4.45;;;10.80;75.00;;;;;;5055231;28;20033;-64
2023/05/09 00:50:33;;;;;;;6.82;4.78;;;10.70;75.20;;;;;;5054514;28;20083;-63
2023/05/09 00:52:59;;;;;;;11.90;4.82;;;10.70;75.30;;;;;;5055094;28;20454;-64
2023/05/09 00:55:26;;;;;;;6.00;4.30;;;10.70;75.40;;;;;;5053565;28;20520;-64
2023/05/09 00:57:51;;;;;;;8.50;4.88;;;10.70;75.70;;;;;;5054953;28;20036;-64
2023/05/09 01:00:17;;;;;;;6.63;5.03;;;10.70;76.20;;;;;;5054357;28;20029;-63
2023/05/09 01:02:47;;;;;;;6.93;4.80;;;10.70;76.20;;;;;;5054988;28;20029;-63
2023/05/09 01:05:13;;;;;;;7.25;4.95;;;10.70;76.20;;;;;;5054421;28;20430;-65
2023/05/09 01:08:10;;;;;;;10.55;5.00;;;10.70;76.00;;;;;;5053463;28;20040;-63
2023/05/09 01:10:49;;;;;;;7.18;4.85;;;10.70;76.00;;;;;;5054442;28;20501;-64
2023/05/09 01:13:41;;;;;;;7.72;4.75;;;10.70;75.90;;;;;;5054777;28;20028;-64
2023/05/09 01:16:14;;;;;;;7.22;5.35;;;10.70;76.10;;;;;;5052353;28;20041;-64
2023/05/09 01:18:59;;;;;;;6.13;4.72;;;10.70;76.00;;;;;;5054723;28;20103;-64
2023/05/09 01:21:30;;;;;;;6.63;4.80;;;10.60;76.30;;;;;;5053970;28;20587;-64
2023/05/09 01:24:13;;;;;;;11.10;4.80;;;10.70;76.50;;;;;;5054479;28;20439;-64
2023/05/09 01:27:19;;;;;;;10.75;4.75;;;10.60;77.00;;;;;;5054486;28;20032;-64
2023/05/09 01:29:47;;;;;;;7.38;5.32;;;10.60;77.40;;;;;;5054785;28;20033;-64
2023/05/09 01:32:18;;;;;;;8.55;5.28;;;10.60;77.10;;;;;;5054062;28;20025;-65
2023/05/09 01:34:46;;;;;;;6.60;4.80;;;10.50;76.90;;;;;;5053369;28;20491;-64
2023/05/09 01:37:18;;;;;;;7.03;4.97;;;10.50;77.60;;;;;;5053623;28;20040;-68
2023/05/09 01:39:49;;;;;;;6.85;4.85;;;10.60;77.60;;;;;;5054270;28;20033;-64
2023/05/09 01:42:17;;;;;;;8.45;4.63;;;10.60;77.40;;;;;;5053875;28;20032;-64
2023/05/09 01:44:45;;;;;;;13.23;5.32;;;10.60;77.40;;;;;;5054301;28;20077;-64
2023/05/09 01:47:15;;;;;;;8.48;5.30;;;10.50;77.60;;;;;;5054269;28;20374;-64
2023/05/09 01:49:42;;;;;;;10.55;5.00;;;10.50;77.90;;;;;;5052989;28;20025;-64
2023/05/09 01:52:12;;;;;;;10.05;5.20;;;10.50;78.30;;;;;;5054461;28;20033;-64
2023/05/09 01:54:39;;;;;;;8.25;4.78;;;10.40;78.20;;;;;;5055658;28;20068;-64
2023/05/09 01:57:06;;;;;;;7.57;4.78;;;10.40;78.40;;;;;;5058153;28;20032;-64
2023/05/09 01:59:33;;;;;;;6.32;4.80;;;10.40;78.70;;;;;;5054198;28;20021;-64
2023/05/09 02:02:01;;;;;;;15.10;5.10;;;10.40;78.70;;;;;;5055012;28;20033;-64
2023/05/09 02:04:29;;;;;;;8.43;4.75;;;10.30;79.40;;;;;;5053118;28;20033;-64
2023/05/09 02:06:56;;;;;;;6.05;4.90;;;10.20;79.80;;;;;;5053927;28;20028;-64
2023/05/09 02:09:22;;;;;;;11.20;5.10;;;10.20;80.30;;;;;;5053209;28;20028;-64
2023/05/09 02:11:48;;;;;;;7.47;5.22;;;10.20;80.10;;;;;;5053524;28;20448;-64
2023/05/09 02:14:13;;;;;;;7.88;4.65;;;10.20;80.80;;;;;;5053570;28;20025;-63
2023/05/09 02:16:40;;;;;;;7.80;5.15;;;10.20;81.00;;;;;;5053331;28;20461;-64
2023/05/09 02:19:06;;;;;;;8.95;4.88;;;10.10;81.60;;;;;;5053611;28;20037;-64
2023/05/09 02:21:32;;;;;;;14.45;5.43;;;10.10;81.90;;;;;;5053098;28;20036;-65
2023/05/09 02:23:58;;;;;;;6.43;5.28;;;10.00;82.10;;;;;;5053218;28;20028;-64
2023/05/09 02:26:25;;;;;;;5.53;4.85;;;10.00;82.30;;;;;;5053114;28;20063;-64
2023/05/09 02:28:52;;;;;;;9.48;5.47;;;10.00;82.60;;;;;;5053596;28;20082;-64
2023/05/09 02:31:19;;;;;;;8.13;5.15;;;10.00;82.80;;;;;;5052917;28;20116;-64
2023/05/09 02:33:46;;;;;;;12.27;5.25;;;10.00;82.90;;;;;;5053565;28;20422;-64
2023/05/09 02:36:15;;;;;;;8.27;5.40;;;10.00;82.60;;;;;;5053104;28;20049;-64
2023/05/09 02:38:41;;;;;;;9.13;5.10;;;10.10;83.10;;;;;;5052673;28;20033;-64
2023/05/09 02:41:15;;;;;;;8.95;4.97;;;10.00;83.30;;;;;;5052827;28;20485;-63
2023/05/09 02:43:40;;;;;;;7.80;5.50;;;10.00;83.30;;;;;;5051225;28;20061;-63
2023/05/09 02:46:07;;;;;;;9.70;5.40;;;10.00;83.60;;;;;;5052009;28;20085;-63
2023/05/09 02:48:32;;;;;;;12.23;5.30;;;10.00;84.00;;;;;;5052622;28;20033;-64
2023/05/09 02:50:58;;;;;;;10.45;6.45;;;10.00;84.10;;;;;;5052731;28;20027;-64
2023/05/09 02:53:24;;;;;;;10.65;5.70;;;9.90;84.40;;;;;;5052740;28;20108;-64
2023/05/09 02:55:49;;;;;;;7.18;5.32;;;9.90;84.70;;;;;;5051609;28;20446;-63
2023/05/09 02:58:15;;;;;;;6.95;4.88;;;9.90;84.90;;;;;;5051732;28;20091;-65
2023/05/09 03:00:41;;;;;;;7.00;5.50;;;9.90;85.40;;;;;;5052197;28;20393;-63
2023/05/09 03:03:07;;;;;;;9.80;5.60;;;9.90;85.80;;;;;;5052766;28;20029;-63
2023/05/09 03:05:33;;;;;;;6.78;5.18;;;9.90;85.90;;;;;;5052350;28;20032;-64
2023/05/09 03:07:59;;;;;;;7.63;5.20;;;9.90;86.60;;;;;;5052413;28;20058;-64
2023/05/09 03:10:24;;;;;;;8.05;5.15;;;9.90;86.40;;;;;;5052324;28;20029;-64
2023/05/09 03:12:50;;;;;;;7.53;5.43;;;9.90;86.90;;;;;;5051471;28;20454;-63
2023/05/09 03:15:15;;;;;;;7.53;5.43;;;9.90;87.20;;;;;;5052611;28;20452;-64
2023/05/09 03:17:41;;;;;;;9.15;5.13;;;9.80;87.40;;;;;;5052237;28;20517;-64
2023/05/09 03:20:09;;;;;;;10.02;6.10;;;9.90;87.20;;;;;;5052405;28;20028;-64
2023/05/09 03:22:34;;;;;;;7.78;5.50;;;9.90;86.70;;;;;;5052069;28;20033;-64
2023/05/09 03:25:00;;;;;;;6.70;5.22;;;9.90;87.00;;;;;;5052559;28;20025;-64
2023/05/09 03:27:26;;;;;;;7.15;5.65;;;9.80;87.70;;;;;;5051995;28;20029;-64
2023/05/09 03:29:51;;;;;;;12.15;5.57;;;9.80;87.70;;;;;;5052215;28;20091;-64
2023/05/09 03:32:17;;;;;;;6.82;4.80;;;9.80;87.70;;;;;;5052410;28;20029;-64
2023/05/09 03:34:43;;;;;;;6.68;5.32;;;9.80;87.90;;;;;;5051242;28;20409;-64
2023/05/09 03:37:08;;;;;;;6.65;4.93;;;9.80;88.30;;;;;;5051940;28;20432;-64
2023/05/09 03:39:34;;;;;;;8.95;5.13;;;9.80;88.40;;;;;;5051323;28;20029;-64
2023/05/09 03:41:59;;;;;;;7.68;4.90;;;9.80;88.40;;;;;;5051843;28;20029;-64
2023/05/09 03:44:25;;;;;;;8.95;5.15;;;9.80;87.90;;;;;;5051049;28;20032;-64
2023/05/09 03:46:51;;;;;;;9.40;5.13;;;9.90;87.30;;;;;;5052064;28;20025;-64
2023/05/09 03:49:16;;;;;;;5.10;4.28;;;9.90;87.20;;;;;;5051915;28;20389;-64
2023/05/09 03:51:42;;;;;;;8.73;4.45;;;9.90;86.90;;;;;;5051180;28;20025;-64
2023/05/09 03:54:07;;;;;;;7.22;4.38;;;9.80;86.90;;;;;;5050611;28;20116;-64
2023/05/09 03:56:33;;;;;;;7.03;4.68;;;9.80;87.40;;;;;;5051338;28;20029;-63
2023/05/09 03:58:59;;;;;;;7.47;4.88;;;9.80;87.80;;;;;;5055221;28;20029;-63
2023/05/09 04:01:24;;;;;;;6.80;4.78;;;9.80;87.40;;;;;;5055192;28;20028;-68
2023/05/09 04:03:50;;;;;;;6.25;4.80;;;9.80;87.60;;;;;;5055909;28;20124;-64
2023/05/09 04:06:17;;;;;;;8.68;5.15;;;9.80;87.20;;;;;;5056002;28;20359;-64
2023/05/09 04:08:43;;;;;;;6.93;4.75;;;9.80;87.60;;;;;;5055283;28;20029;-64
2023/05/09 04:11:09;;;;;;;8.00;4.90;;;9.80;87.90;;;;;;5055703;28;20086;-64
2023/05/09 04:13:34;;;;;;;9.35;5.50;;;9.80;87.40;;;;;;5055105;28;20078;-64
2023/05/09 04:16:00;;;;;;;8.15;4.85;;;9.80;87.30;;;;;;5055211;28;20091;-64
2023/05/09 04:18:26;;;;;;;6.00;4.30;;;9.90;87.00;;;;;;5055246;28;20111;-68
2023/05/09 04:20:52;;;;;;;9.13;4.93;;;9.90;86.90;;;;;;5055244;28;20532;-64
2023/05/09 04:23:18;;;;;;;6.15;4.90;;;9.90;86.70;;;;;;5055385;28;20112;-64
2023/05/09 04:25:43;;;;;;;6.88;4.20;;;10.00;86.80;;;;;;5054878;28;20438;-64
2023/05/09 04:28:09;;;;;;;7.15;4.70;;;10.00;86.70;;;;;;5055507;28;20052;-64
2023/05/09 04:30:35;;;;;;;5.60;4.68;;;10.00;86.30;;;;;;5055037;28;20035;-65
2023/05/09 04:33:01;;;;;;;7.72;5.03;;;10.00;86.40;;;;;;5055245;28;20060;-64
2023/05/09 04:35:27;;;;;;;7.28;4.75;;;10.00;86.30;;;;;;5055116;28;20067;-65
2023/05/09 04:37:52;;;;;;;5.80;4.10;;;10.00;86.60;;;;;;5055259;28;20082;-65
2023/05/09 04:40:18;;;;;;;10.35;4.68;;;10.00;87.10;;;;;;5055506;28;20330;-68
2023/05/09 04:42:44;;;;;;;14.10;5.65;;;10.00;87.80;;;;;;5055015;28;20025;-69
2023/05/09 04:45:10;;;;;;;9.15;4.75;;;10.10;88.30;;;;;;5054973;28;20115;-68
2023/05/09 04:47:36;;;;;;;11.00;5.10;;;10.20;88.40;;;;;;5054398;28;20033;-69
2023/05/09 04:50:02;;;;;;;8.77;4.68;;;10.40;87.50;;;;;;5054868;28;20040;-67
2023/05/09 04:52:28;;;;;;;6.75;4.82;;;10.50;86.60;;;;;;5054672;28;20346;-67
2023/05/09 04:54:54;;;;;;;7.72;4.30;;;10.60;85.20;;;;;;5055135;28;20024;-68
2023/05/09 04:57:20;;;;;;;8.32;5.03;;;10.80;84.90;;;;;;5054959;28;20108;-66
2023/05/09 04:59:45;;;;;;;9.35;4.53;;;11.00;84.80;;;;;;5054373;28;20052;-65
2023/05/09 05:02:11;;;;;;;14.20;4.93;;;11.20;84.10;;;;;;5054929;28;20025;-65
2023/05/09 05:04:37;;;;;;;5.88;4.38;;;11.50;82.00;;;;;;5050569;28;20033;-66
2023/05/09 05:07:04;;;;;;;8.50;4.55;;;11.70;80.80;;;;;;5052018;28;20055;-68
2023/05/09 05:09:29;;;;;;;10.27;4.45;;;11.90;80.10;;;;;;5053609;28;20111;-69
2023/05/09 05:11:55;;;;;;;6.95;4.10;;;12.10;77.90;;;;;;5054761;28;20044;-68
2023/05/09 05:14:21;;;;;;;7.07;3.67;;;12.30;77.90;;;;;;5054652;28;20021;-68
2023/05/09 05:16:46;;;;;;;6.85;4.45;;;12.50;76.90;;;;;;5054359;28;20025;-69
2023/05/09 05:19:12;;;;;;;4.75;3.65;;;12.80;75.00;;;;;;5054331;28;20446;-68
2023/05/09 05:21:37;;;;;;;7.32;4.05;;;12.90;72.20;;;;;;5054167;28;20111;-68
2023/05/09 05:24:03;;;;;;;4.80;3.85;;;13.10;69.80;;;;;;5054661;28;20025;-68
2023/05/09 05:26:29;;;;;;;7.43;4.00;;;13.10;69.30;;;;;;5054194;28;20048;-73
2023/05/09 05:28:56;;;;;;;5.72;3.70;;;13.10;68.80;;;;;;5053301;28;20119;-68
2023/05/09 05:31:22;;;;;;;8.02;3.60;;;13.50;68.60;;;;;;5054539;28;20037;-68
2023/05/09 05:33:47;;;;;;;4.75;3.53;;;14.10;68.00;;;;;;5053959;28;20032;-70
2023/05/09 05:36:13;;;;;;;6.50;3.60;;;14.80;65.30;;;;;;5054318;28;20013;-68
2023/05/09 05:38:39;;;;;;;7.13;3.80;;;15.40;61.50;;;;;;5053390;28;20374;-67
2023/05/09 05:41:04;;;;;;;5.18;3.65;;;15.90;59.80;;;;;;5053929;28;20028;-68
2023/05/09 05:43:30;;;;;;;5.18;2.90;;;16.50;58.00;;;;;;5054017;28;20021;-72
2023/05/09 05:45:56;;;;;;;5.72;3.15;;;17.00;55.70;;;;;;5054291;28;20068;-68
2023/05/09 05:48:21;;;;;;;5.90;3.08;;;17.50;54.30;;;;;;5054106;28;20107;-68
2023/05/09 05:50:47;;;;;;;4.30;3.00;;;17.80;52.60;;;;;;5053363;28;20029;-68
2023/05/09 05:53:12;;;;;;;3.78;2.88;;;18.00;50.90;;;;;;5054014;28;20532;-68
2023/05/09 05:55:38;;;;;;;3.83;3.08;;;18.20;50.30;;;;;;5053709;28;20021;-68
2023/05/09 05:58:04;;;;;;;4.70;2.90;;;18.50;50.00;;;;;;5053896;28;20064;-68
2023/05/09 06:00:29;;;;;;;3.30;2.45;;;18.60;48.60;;;;;;5053701;28;20021;-68
2023/05/09 06:02:55;;;;;;;4.43;3.38;;;18.80;48.60;;;;;;5053386;28;20025;-67
2023/05/09 06:05:20;;;;;;;4.05;3.00;;;18.90;48.20;;;;;;5053459;28;20048;-68
2023/05/09 06:07:46;;;;;;;3.70;2.83;;;19.10;47.40;;;;;;5053054;28;20108;-68
2023/05/09 06:10:14;;;;;;;4.50;3.03;;;19.20;47.70;;;;;;5053645;28;20027;-68
2023/05/09 06:12:40;;;;;;;5.10;2.78;;;19.30;46.70;;;;;;5053196;28;20033;-68
2023/05/09 06:15:06;;;;;;;4.20;2.90;;;19.50;46.30;;;;;;5053331;28;20110;-68
2023/05/09 06:17:33;;;;;;;4.43;3.13;;;19.90;46.20;;;;;;5053259;28;20036;-68
2023/05/09 06:19:58;;;;;;;5.38;2.88;;;20.00;45.30;;;;;;5053181;28;20033;-68
2023/05/09 06:22:24;;;;;;;5.45;3.00;;;20.00;45.40;;;;;;5053347;28;20373;-69
2023/05/09 06:24:49;;;;;;;5.97;3.10;;;20.20;45.30;;;;;;5053021;28;20345;-68
2023/05/09 06:27:15;;;;;;;4.97;3.05;;;20.60;44.40;;;;;;5053011;28;20025;-68
2023/05/09 06:29:41;;;;;;;4.25;2.70;;;20.90;43.50;;;;;;5053002;28;20075;-68
2023/05/09 06:32:06;;;;;;;5.15;2.60;;;20.80;43.00;;;;;;5053058;28;20462;-69
2023/05/09 06:34:32;;;;;;;5.18;2.80;;;20.90;43.20;;;;;;5053322;28;20028;-68
2023/05/09 06:36:57;;;;;;;4.13;2.90;;;20.90;42.60;;;;;;5052546;28;20024;-67
2023/05/09 06:39:23;;;;;;;3.45;2.90;;;20.90;43.50;;;;;;5053182;28;20032;-67
2023/05/09 06:41:49;;;;;;;9.73;3.20;;;21.20;42.70;;;;;;5052293;28;20013;-67
2023/05/09 06:44:14;;;;;;;3.78;2.88;;;21.60;42.10;;;;;;5053099;28;20036;-68
2023/05/09 06:46:40;;;;;;;3.95;2.53;;;21.70;41.50;;;;;;5051239;28;20079;-68
2023/05/09 06:49:06;;;;;;;3.53;2.60;;;21.90;41.20;;;;;;5052919;28;20051;-68
2023/05/09 06:51:31;;;;;;;4.97;3.10;;;22.00;40.90;;;;;;5052837;28;20514;-68
2023/05/09 06:53:57;;;;;;;4.10;2.63;;;22.30;40.40;;;;;;5052433;28;20588;-68
2023/05/09 06:56:24;;;;;;;3.78;2.92;;;22.70;40.50;;;;;;5053138;28;20042;-67
2023/05/09 06:58:50;;;;;;;4.30;3.00;;;22.90;39.10;;;;;;5052532;28;20370;-67
2023/05/09 07:01:16;;;;;;;5.95;3.05;;;23.10;39.40;;;;;;5053303;28;20025;-67
2023/05/09 07:03:42;;;;;;;3.42;2.88;;;23.10;38.50;;;;;;5052900;28;20025;-68
2023/05/09 07:06:08;;;;;;;4.07;2.83;;;22.90;39.10;;;;;;5053598;28;20031;-67
2023/05/09 07:08:33;;;;;;;7.22;3.00;;;22.40;39.30;;;;;;5053532;28;20440;-69
2023/05/09 07:10:59;;;;;;;5.57;2.83;;;22.00;40.20;;;;;;5052743;28;20021;-69
2023/05/09 07:13:25;;;;;;;4.57;3.42;;;21.40;40.50;;;;;;5052954;28;20086;-68
2023/05/09 07:15:50;;;;;;;6.22;3.22;;;20.90;41.90;;;;;;5052281;28;20096;-68
2023/05/09 07:18:16;;;;;;;10.70;3.25;;;20.90;42.60;;;;;;5052641;28;20033;-68
2023/05/09 07:20:41;;;;;;;5.32;3.30;;;20.90;42.20;;;;;;5052215;28;20025;-68
2023/05/09 07:23:07;;;;;;;5.85;3.72;;;20.80;42.00;;;;;;5052579;28;20468;-68
2023/05/09 07:25:32;;;;;;;3.80;3.33;;;20.60;43.00;;;;;;5052245;28;20042;-68
2023/05/09 07:27:58;;;;;;;3.55;2.92;;;20.30;43.50;;;;;;5052017;28;20481;-67
2023/05/09 07:30:24;;;;;;;5.55;3.13;;;19.70;43.80;;;;;;5052542;28;20036;-67
2023/05/09 07:32:50;;;;;;;5.03;3.55;;;19.60;44.70;;;;;;5053492;28;20021;-68
2023/05/09 07:35:16;;;;;;;4.40;3.35;;;19.40;45.40;;;;;;5056747;28;20099;-68
2023/05/09 07:37:42;;;;;;;7.03;3.50;;;19.40;45.10;;;;;;5056640;28;20117;-68
2023/05/09 07:40:08;;;;;;;5.72;3.45;;;19.60;45.90;;;;;;5057834;28;20100;-68
2023/05/09 07:42:34;;;;;;;6.78;3.63;;;20.60;45.40;;;;;;5058348;28;20021;-68
2023/05/09 07:45:00;;;;;;;5.03;2.92;;;21.10;42.80;;;;;;5057874;28;20053;-69
2023/05/09 07:47:25;;;;;;;6.82;2.78;;;21.60;42.30;;;;;;5057083;28;20025;-68
2023/05/09 07:49:51;;;;;;;5.22;2.78;;;21.90;41.30;;;;;;5055635;28;20457;-69
2023/05/09 07:52:17;;;;;;;9.68;3.10;;;22.50;41.10;;;;;;5056098;28;20032;-69
2023/05/09 07:54:43;;;;;;;4.97;3.25;;;22.70;39.50;;;;;;5055734;28;20374;-69
2023/05/09 07:57:09;;;;;;;3.45;2.72;;;22.80;40.20;;;;;;5056112;28;20104;-69
2023/05/09 07:59:35;;;;;;;5.68;3.28;;;22.90;39.30;;;;;;5056271;28;20028;-69
2023/05/09 08:02:01;;;;;;;6.40;3.20;;;22.60;40.20;;;;;;5055345;28;20401;-68
2023/05/09 08:04:26;;;;;;;5.20;3.10;;;23.30;40.30;;;;;;5056059;28;20492;-68
2023/05/09 08:06:52;;;;;;;4.43;3.10;;;23.60;38.80;;;;;;5055600;28;20107;-69
2023/05/09 08:09:18;;;;;;;5.95;3.72;;;23.90;38.50;;;;;;5055857;28;20068;-69
2023/05/09 08:11:43;;;;;;;4.68;2.55;;;24.00;38.00;;;;;;5055518;28;20025;-69
2023/05/09 08:14:09;;;;;;;5.13;3.25;;;23.80;38.60;;;;;;5055798;28;20017;-70
2023/05/09 08:16:35;;;;;;;5.60;2.63;;;23.80;37.90;;;;;;5055835;28;20342;-69
2023/05/09 08:19:01;;;;;;;4.57;2.70;;;24.00;37.90;;;;;;5055485;28;20096;-69
2023/05/09 08:21:27;;;;;;;5.65;3.20;;;23.70;37.40;;;;;;5055896;28;20024;-69
2023/05/09 08:23:53;;;;;;;5.38;3.40;;;23.20;37.90;;;;;;5055355;28;20452;-69
2023/05/09 08:26:18;;;;;;;6.97;2.97;;;22.80;38.40;;;;;;5055279;28;20472;-69
2023/05/09 08:28:44;;;;;;;3.85;2.63;;;22.70;39.60;;;;;;5054771;28;20377;-69
2023/05/09 08:31:10;;;;;;;4.57;2.88;;;22.50;39.20;;;;;;5055366;28;20036;-69
2023/05/09 08:33:35;;;;;;;6.05;3.08;;;22.10;39.90;;;;;;5055214;28;20473;-69
2023/05/09 08:36:01;;;;;;;3.72;2.95;;;21.70;40.50;;;;;;5054643;28;20040;-69
2023/05/09 08:38:27;;;;;;;4.95;2.90;;;21.50;41.40;;;;;;5055608;28;20052;-69
2023/05/09 08:40:59;;;;;;;4.18;2.63;;;21.50;41.40;;;;;;5053745;28;20024;-68
2023/05/09 08:43:26;;;;;;;6.93;3.20;;;21.10;41.20;;;;;;5054939;28;20029;-68
2023/05/09 08:45:57;;;;;;;3.88;3.10;;;20.90;42.60;;;;;;5054894;28;20041;-68
2023/05/09 08:48:23;;;;;;;11.80;3.35;;;20.50;42.70;;;;;;5054801;28;20036;-68
2023/05/09 08:50:50;;;;;;;6.05;3.35;;;20.10;43.90;;;;;;5054744;28;20029;-69
2023/05/09 08:53:15;;;;;;;3.58;2.88;;;19.80;45.00;;;;;;5055230;28;20029;-69
2023/05/09 08:55:41;;;;;;;7.88;3.20;;;19.70;45.50;;;;;;5054828;28;20023;-69
2023/05/09 08:58:11;;;;;;;6.70;2.97;;;19.70;46.60;;;;;;5054538;28;20043;-68
2023/05/09 09:00:38;;;;;;;4.20;3.10;;;19.60;45.80;;;;;;5055184;28;20032;-68
2023/05/09 09:03:06;;;;;;;3.75;3.10;;;19.40;45.30;;;;;;5054441;28;20020;-68
2023/05/09 09:05:36;;;;;;;5.85;3.63;;;19.30;46.10;;;;;;5054822;28;20418;-69
2023/05/09 09:08:04;;;;;;;4.18;3.45;;;19.00;46.50;;;;;;5054435;28;20039;-69
2023/05/09 09:10:32;;;;;;;5.60;2.85;;;18.90;47.20;;;;;;5053252;28;20025;-68
2023/05/09 09:12:59;;;;;;;6.50;3.67;;;18.70;48.60;;;;;;5054190;28;20052;-69
2023/05/09 09:15:29;;;;;;;6.20;3.50;;;18.50;48.70;;;;;;5055038;28;20100;-69
2023/05/09 09:17:58;;;;;;;6.22;3.53;;;18.30;48.90;;;;;;5054735;28;20450;-68
2023/05/09 09:20:26;;;;;;;6.55;3.90;;;18.20;48.40;;;;;;5054784;28;20051;-68
2023/05/09 09:23:03;;;;;;;6.78;3.28;;;18.00;50.30;;;;;;5053968;28;20056;-69
2023/05/09 09:25:29;;;;;;;3.70;3.40;;;18.00;50.50;;;;;;5054602;28;20025;-68
2023/05/09 09:27:54;;;;;;;5.55;3.17;;;17.90;50.20;;;;;;5053967;28;20078;-69
2023/05/09 09:30:23;;;;;;;9.38;3.20;;;17.90;51.10;;;;;;5054226;28;20052;-68
2023/05/09 09:32:49;;;;;;;7.40;3.17;;;17.90;51.90;;;;;;5054146;28;20107;-68
2023/05/09 09:35:16;;;;;;;4.38;3.67;;;17.90;51.60;;;;;;5054078;28;20135;-69
2023/05/09 09:37:42;;;;;;;6.43;3.17;;;17.90;51.10;;;;;;5053071;28;20090;-69
2023/05/09 09:40:10;;;;;;;4.25;3.75;;;17.90;51.00;;;;;;5054228;28;20032;-68
2023/05/09 09:42:45;;;;;;;8.30;3.47;;;17.80;51.60;;;;;;5053751;28;20017;-68
2023/05/09 09:45:16;;;;;;;3.83;2.95;;;17.90;52.10;;;;;;5053827;28;20107;-69
2023/05/09 09:47:42;;;;;;;;;;;17.90;51.30;;;;;;5054511;28;20032;-68
2023/05/09 09:50:21;;;;;;;6.50;3.72;;;17.80;51.60;;;;;;5053540;28;19912;-68
2023/05/09 09:52:54;;;;;;;8.85;3.10;;;17.70;52.30;;;;;;5054091;28;20100;-68
2023/05/09 09:55:21;;;;;;;7.13;3.90;;;17.70;52.60;;;;;;5053263;28;20029;-68
2023/05/09 09:57:48;;;;;;;5.45;3.45;;;17.70;52.40;;;;;;5053829;28;20055;-67
2023/05/09 10:00:15;;;;;;;5.53;3.60;;;17.80;53.00;;;;;;5053972;28;20025;-68
2023/05/09 10:02:52;;;;;;;8.75;3.35;;;17.80;53.30;;;;;;5053755;28;20096;-70
2023/05/09 10:05:22;;;;;;;6.78;3.45;;;17.90;52.80;;;;;;5053654;28;20020;-69
2023/05/09 10:07:58;;;;;;;6.25;3.92;;;17.90;52.70;;;;;;5053523;28;20025;-67
2023/05/09 10:10:28;;;;;;;5.15;4.32;;;18.00;53.30;;;;;;5053341;28;20031;-69
2023/05/09 10:13:08;;;;;;;6.73;3.80;;;18.00;52.70;;;;;;5053153;28;20024;-68
2023/05/09 10:15:36;;;;;;;8.70;4.17;;;17.90;53.20;;;;;;5053684;28;20250;-69
2023/05/09 10:18:03;;;;;;;4.28;3.80;;;18.00;54.00;;;;;;5053187;28;20064;-68
2023/05/09 10:20:30;;;;;;;7.13;3.85;;;18.10;54.00;;;;;;5053388;28;20029;-68
2023/05/09 10:23:00;;;;;;;7.25;4.20;;;18.10;53.40;;;;;;5053092;28;20434;-69
2023/05/09 10:25:31;;;;;;;5.88;3.85;;;18.10;53.10;;;;;;5053093;28;20484;-69
2023/05/09 10:28:00;;;;;;;6.75;3.40;;;18.20;53.70;;;;;;5052691;28;20120;-68
2023/05/09 10:30:36;;;;;;;6.05;3.72;;;18.20;53.90;;;;;;5053272;28;20021;-69
2023/05/09 10:33:07;;;;;;;6.20;4.15;;;18.20;53.30;;;;;;5052480;28;20096;-69
2023/05/09 10:35:44;;;;;;;9.45;4.45;;;18.20;53.40;;;;;;5053205;28;20112;-69
2023/05/09 10:38:11;;;;;;;5.63;4.28;;;18.20;53.30;;;;;;5052510;28;20033;-68
2023/05/09 10:40:39;;;;;;;7.63;4.53;;;18.20;53.60;;;;;;5052761;28;20017;-69
2023/05/09 10:43:06;;;;;;;4.85;3.78;;;18.20;53.90;;;;;;5052365;28;20361;-69
2023/05/09 10:45:32;;;;;;;7.10;3.85;;;18.20;53.80;;;;;;5052640;28;20045;-67
2023/05/09 10:47:58;;;;;;;5.78;3.50;;;18.20;53.40;;;;;;5052408;28;20036;-69
2023/05/09 10:50:25;;;;;;;6.22;3.42;;;18.10;54.10;;;;;;5052917;28;20029;-68
2023/05/09 10:53:02;;;;;;;10.18;3.72;;;18.20;53.30;;;;;;5052984;28;20100;-69
2023/05/09 10:55:51;;;;;;;4.45;3.72;;;18.30;53.90;;;;;;5052607;28;20356;-68
2023/05/09 10:58:35;;;;;;;3.75;3.22;;;18.40;53.40;;;;;;5052523;28;20101;-68
2023/05/09 11:01:02;;;;;;;4.30;3.58;;;18.40;54.10;;;;;;5052448;28;20044;-68
2023/05/09 11:03:48;;;;;;;4.90;3.75;;;18.50;53.40;;;;;;5052651;28;20029;-68
2023/05/09 11:06:51;;;;;;;3.83;3.40;;;18.50;52.90;;;;;;5050711;28;20043;-67
2023/05/09 11:09:34;;;;;;;5.05;3.60;;;18.50;53.40;;;;;;5050884;28;20032;-67
2023/05/09 11:12:00;;;;;;;9.60;3.50;;;18.50;53.40;;;;;;5052311;28;20032;-69
2023/05/09 11:14:50;;;;;;;4.97;3.88;;;18.60;53.30;;;;;;5052592;28;20029;-68
2023/05/09 11:17:22;;;;;;;6.72;3.47;;;18.50;52.70;;;;;;5052205;28;20458;-68
2023/05/09 11:19:50;;;;;;;6.57;3.28;;;18.60;53.50;;;;;;5052143;28;20368;-68
2023/05/09 11:22:38;;;;;;;4.90;3.53;;;18.50;52.30;;;;;;5052063;28;20032;-68
2023/05/09 11:25:05;;;;;;;5.18;3.78;;;18.60;53.00;;;;;;5051741;28;20365;-69
2023/05/09 11:27:48;;;;;;;6.50;3.30;;;18.60;52.90;;;;;;5052202;28;20457;-68
2023/05/09 11:30:16;;;;;;;4.22;3.40;;;18.70;53.10;;;;;;5052097;28;20021;-68
2023/05/09 11:32:52;;;;;;;5.18;3.83;;;18.70;52.90;;;;;;5052383;28;20437;-67
2023/05/09 11:35:21;;;;;;;4.97;3.90;;;18.70;52.60;;;;;;5051817;28;20029;-68
2023/05/09 11:37:53;;;;;;;6.30;3.78;;;18.50;52.80;;;;;;5052045;28;20454;-67
2023/05/09 11:40:21;;;;;;;5.32;3.55;;;18.50;53.30;;;;;;5051415;28;20025;-68
2023/05/09 11:42:54;;;;;;;7.28;3.70;;;18.50;53.30;;;;;;5052336;28;20342;-68
2023/05/09 11:45:22;;;;;;;5.90;3.80;;;18.60;53.50;;;;;;5051699;28;20547;-68
2023/05/09 11:47:48;;;;;;;7.07;3.60;;;18.60;53.50;;;;;;5052258;28;20036;-69
2023/05/09 11:50:18;;;;;;;6.55;3.80;;;18.60;53.30;;;;;;5051862;28;20025;-68
2023/05/09 11:52:43;;;;;;;13.60;4.43;;;18.60;52.50;;;;;;5052104;28;20025;-69
2023/05/09 11:55:12;;;;;;;4.28;3.65;;;18.60;52.30;;;;;;5051812;28;20530;-69
2023/05/09 11:57:51;;;;;;;9.65;4.40;;;18.60;52.50;;;;;;5052220;28;20035;-67
2023/05/09 12:00:25;;;;;;;6.97;3.85;;;18.50;52.90;;;;;;5051811;28;20405;-68
2023/05/09 12:02:51;;;;;;;7.80;3.70;;;18.40;52.90;;;;;;5052229;28;20025;-69
2023/05/09 12:05:18;;;;;;;4.95;3.40;;;18.30;53.50;;;;;;5051759;28;20465;-68
2023/05/09 12:07:44;;;;;;;4.18;3.50;;;18.30;53.00;;;;;;5051808;28;20491;-68
2023/05/09 12:10:15;;;;;;;4.43;3.70;;;18.20;52.40;;;;;;5051454;28;20100;-69
2023/05/09 12:12:42;;;;;;;;;;;18.10;53.10;;;;;;5052404;28;20024;-68
2023/05/09 12:15:09;;;;;;;6.63;3.78;;;18.10;54.10;;;;;;5051667;28;19904;-68
2023/05/09 12:17:35;;;;;;;4.07;3.22;;;18.10;52.80;;;;;;5052101;28;20028;-68
2023/05/09 12:20:03;;;;;;;4.65;3.28;;;18.00;53.70;;;;;;5054646;28;20429;-68
2023/05/09 12:22:29;;;;;;;9.63;3.25;;;17.90;54.30;;;;;;5055526;28;20473;-68
2023/05/09 12:24:55;;;;;;;8.63;3.20;;;17.90;54.40;;;;;;5055463;28;20021;-68
2023/05/09 12:27:22;;;;;;;4.05;2.88;;;17.90;53.80;;;;;;5055231;28;20039;-66
2023/05/09 12:29:48;;;;;;;5.32;3.10;;;17.90;53.50;;;;;;5055072;28;20017;-69
2023/05/09 12:32:15;;;;;;;4.15;3.00;;;17.80;53.90;;;;;;5055202;28;20027;-69
2023/05/09 12:34:43;;;;;;;4.57;2.97;;;17.70;53.70;;;;;;5055668;28;20049;-68
2023/05/09 12:37:18;;;;;;;6.13;2.70;;;17.70;53.70;;;;;;5055029;28;20526;-69
2023/05/09 12:40:03;;;;;;;7.07;3.08;;;17.70;54.30;;;;;;5053945;28;20457;-68
2023/05/09 12:42:34;;;;;;;3.85;2.80;;;17.70;54.60;;;;;;5055420;28;20037;-68
2023/05/09 12:45:06;;;;;;;4.00;2.70;;;17.70;54.40;;;;;;5055133;28;20127;-68
2023/05/09 12:47:31;;;;;;;6.55;3.30;;;17.70;54.00;;;;;;5055164;28;20052;-69
2023/05/09 12:50:01;;;;;;;9.05;2.92;;;17.70;54.30;;;;;;5054838;28;20053;-68
2023/05/09 12:52:38;;;;;;;6.15;2.80;;;17.70;55.20;;;;;;5055155;28;20029;-68